Time;durP1;ratioP1;P1;durP2;ratioP2;P2;SDS_P1;SDS_P2;PMS_P1;PMS_P2;Temp;Humidity;BMP_temperature;BMP_pressure;BME280_temperature;BME280_humidity;BME280_pressure;Samples;Min_cycle;Max_cycle;Signal;HPM_P1;HPM_P2
2022/10/25 00:04:30;;;;;;;3.15;1.20;;;;;;;;;;10416331;28;20667;-83
2022/10/25 00:09:33;;;;;;;3.55;1.13;;;;;;;;;;10424757;28;20455;-82
2022/10/25 00:14:36;;;;;;;2.50;0.88;;;;;;;;;;10451011;28;20111;-84
2022/10/25 00:19:38;;;;;;;1.60;0.95;;;;;;;;;;10445469;28;20567;-82
2022/10/25 00:24:43;;;;;;;2.73;1.20;;;;;;;;;;10438273;28;20033;-81
2022/10/25 00:29:46;;;;;;;1.83;0.95;;;;;;;;;;10435728;28;20029;-81
2022/10/25 00:34:48;;;;;;;2.22;1.02;;;;;;;;;;10428358;28;20553;-82
2022/10/25 00:39:52;;;;;;;2.58;1.25;;;;;;;;;;10427037;28;20073;-81
2022/10/25 00:44:55;;;;;;;2.28;0.90;;;;;;;;;;10411615;28;20579;-81
2022/10/25 00:50:00;;;;;;;3.77;1.60;;;;;;;;;;10442541;28;20438;-80
2022/10/25 00:55:06;;;;;;;1.30;1.00;;;;;;;;;;10426599;28;20045;-79
2022/10/25 01:00:09;;;;;;;1.75;1.02;;;;;;;;;;10420277;28;20046;-79
2022/10/25 01:05:12;;;;;;;3.20;1.23;;;;;;;;;;10410141;28;20494;-79
2022/10/25 01:10:16;;;;;;;1.58;0.90;;;;;;;;;;10425934;28;20091;-79
2022/10/25 01:15:18;;;;;;;;;;;;;;;;;;10449081;28;20445;-79
2022/10/25 01:20:36;;;;;;;2.67;1.50;;;;;;;;;;10448667;28;20366;-79
2022/10/25 01:25:47;;;;;;;0.57;0.57;;;;;;;;;;10432215;28;20123;-78
2022/10/25 01:31:07;;;;;;;2.53;1.05;;;;;;;;;;10393713;28;20100;-78
2022/10/25 01:36:14;;;;;;;2.58;1.30;;;;;;;;;;10409588;28;20041;-78
2022/10/25 01:41:27;;;;;;;2.92;1.10;;;;;;;;;;10379614;28;20041;-78
2022/10/25 01:46:32;;;;;;;0.65;0.40;;;;;;;;;;10413117;28;20042;-79
2022/10/25 01:51:37;;;;;;;2.85;1.30;;;;;;;;;;10417684;28;20045;-79
2022/10/25 01:56:43;;;;;;;5.45;1.20;;;;;;;;;;10403686;28;20046;-79
2022/10/25 02:01:51;;;;;;;0.60;0.45;;;;;;;;;;10405622;28;20044;-78
2022/10/25 02:06:58;;;;;;;3.22;1.20;;;;;;;;;;10409359;28;20038;-79
2022/10/25 02:12:00;;;;;;;2.78;0.90;;;;;;;;;;10404505;28;20049;-78
2022/10/25 02:17:04;;;;;;;1.10;1.00;;;;;;;;;;10422721;28;20124;-77
2022/10/25 02:22:10;;;;;;;1.17;1.00;;;;;;;;;;10418989;28;20047;-77
2022/10/25 02:27:13;;;;;;;1.80;0.60;;;;;;;;;;10403350;28;20052;-78
2022/10/25 02:32:17;;;;;;;0.25;0.25;;;;;;;;;;10408769;28;20056;-78
2022/10/25 02:37:21;;;;;;;1.33;0.80;;;;;;;;;;10408482;28;20043;-77
2022/10/25 02:42:23;;;;;;;;;;;;;;;;;;10407928;28;20045;-77
2022/10/25 02:47:26;;;;;;;1.30;0.73;;;;;;;;;;10407897;28;19921;-78
2022/10/25 02:52:31;;;;;;;1.27;0.87;;;;;;;;;;10408325;28;20041;-78
2022/10/25 02:57:34;;;;;;;3.85;0.57;;;;;;;;;;10395482;28;20046;-77
2022/10/25 03:02:37;;;;;;;0.50;0.43;;;;;;;;;;10417320;28;20042;-77
2022/10/25 03:07:41;;;;;;;1.50;0.83;;;;;;;;;;10408230;28;20033;-76
2022/10/25 03:12:44;;;;;;;1.45;0.80;;;;;;;;;;10415642;28;20098;-78
2022/10/25 03:17:47;;;;;;;1.38;0.77;;;;;;;;;;10413122;28;20045;-79
2022/10/25 03:22:51;;;;;;;2.72;0.75;;;;;;;;;;10396537;28;20137;-79
2022/10/25 03:27:54;;;;;;;0.57;0.32;;;;;;;;;;10405500;28;20052;-78
2022/10/25 03:32:57;;;;;;;0.77;0.50;;;;;;;;;;10413934;28;20041;-78
2022/10/25 03:38:01;;;;;;;1.58;0.75;;;;;;;;;;10395528;28;20037;-78
2022/10/25 03:43:03;;;;;;;;;;;;;;;;;;10413837;28;20495;-78
2022/10/25 03:48:06;;;;;;;0.93;0.70;;;;;;;;;;10412122;28;19921;-78
2022/10/25 03:53:10;;;;;;;0.65;0.40;;;;;;;;;;10411694;28;20104;-78
2022/10/25 03:58:13;;;;;;;2.03;1.17;;;;;;;;;;10411762;28;20041;-78
2022/10/25 04:03:16;;;;;;;3.13;0.50;;;;;;;;;;10412660;28;20052;-78
2022/10/25 04:08:20;;;;;;;1.85;0.93;;;;;;;;;;10404963;28;20042;-78
2022/10/25 04:13:22;;;;;;;;;;;;;;;;;;10404979;28;20045;-78
2022/10/25 04:18:24;;;;;;;2.53;0.88;;;;;;;;;;10417623;28;19944;-77
2022/10/25 04:23:30;;;;;;;0.32;0.32;;;;;;;;;;10419738;28;20163;-77
2022/10/25 04:28:32;;;;;;;1.35;0.60;;;;;;;;;;10409762;28;20048;-78
2022/10/25 04:33:35;;;;;;;1.15;0.65;;;;;;;;;;10413393;28;20099;-78
2022/10/25 04:38:39;;;;;;;0.77;0.40;;;;;;;;;;10411134;28;20256;-79
2022/10/25 04:43:41;;;;;;;;;;;;;;;;;;10411198;28;20159;-79
2022/10/25 04:48:44;;;;;;;1.40;0.70;;;;;;;;;;10409974;28;19921;-79
2022/10/25 04:53:48;;;;;;;2.40;0.93;;;;;;;;;;10405655;28;20483;-78
2022/10/25 04:58:50;;;;;;;0.60;0.40;;;;;;;;;;10404607;28;20038;-78
2022/10/25 05:03:53;;;;;;;1.90;0.50;;;;;;;;;;10415467;28;20046;-77
2022/10/25 05:08:57;;;;;;;1.58;0.80;;;;;;;;;;10413701;28;20041;-77
2022/10/25 05:13:59;;;;;;;0.50;0.50;;;;;;;;;;10410275;28;20427;-77
2022/10/25 05:19:02;;;;;;;1.63;0.65;;;;;;;;;;10410336;28;20053;-78
2022/10/25 05:24:06;;;;;;;1.73;0.60;;;;;;;;;;10408415;28;20103;-77
2022/10/25 05:29:10;;;;;;;1.17;0.80;;;;;;;;;;10408538;28;20120;-77
2022/10/25 05:34:13;;;;;;;2.53;0.98;;;;;;;;;;10408851;28;20063;-78
2022/10/25 05:39:17;;;;;;;3.22;1.10;;;;;;;;;;10402791;28;20325;-78
2022/10/25 05:44:20;;;;;;;1.17;0.70;;;;;;;;;;10386143;28;20048;-79
2022/10/25 05:49:23;;;;;;;0.47;0.38;;;;;;;;;;10410057;28;20049;-78
2022/10/25 05:54:26;;;;;;;3.00;1.00;;;;;;;;;;10409638;28;20041;-79
2022/10/25 05:59:29;;;;;;;;;;;;;;;;;;10409321;28;20129;-78
2022/10/25 06:04:31;;;;;;;3.42;0.50;;;;;;;;;;10410616;28;19921;-77
2022/10/25 06:09:35;;;;;;;3.22;0.98;;;;;;;;;;10409725;28;20442;-78
2022/10/25 06:14:37;;;;;;;;;;;;;;;;;;10409556;28;20053;-76
2022/10/25 06:19:40;;;;;;;2.47;1.00;;;;;;;;;;10407699;28;19920;-78
2022/10/25 06:24:46;;;;;;;0.55;0.52;;;;;;;;;;10400632;28;20510;-78
2022/10/25 06:29:49;;;;;;;;;;;;;;;;;;10401794;28;20111;-77
2022/10/25 06:34:51;;;;;;;0.63;0.57;;;;;;;;;;10392858;28;20007;-77
2022/10/25 06:39:55;;;;;;;3.22;1.10;;;;;;;;;;10415524;28;20033;-77
2022/10/25 06:44:57;;;;;;;;;;;;;;;;;;10416397;28;20127;-77
2022/10/25 06:50:00;;;;;;;3.50;0.98;;;;;;;;;;10416325;28;19928;-78
2022/10/25 06:55:04;;;;;;;1.42;1.10;;;;;;;;;;10415133;28;20084;-78
2022/10/25 07:00:08;;;;;;;1.20;1.10;;;;;;;;;;10407502;28;20119;-79
2022/10/25 07:05:10;;;;;;;3.08;1.40;;;;;;;;;;10414988;28;20495;-77
2022/10/25 07:10:14;;;;;;;2.27;1.43;;;;;;;;;;10396454;28;20041;-77
2022/10/25 07:15:17;;;;;;;6.07;1.25;;;;;;;;;;10415453;28;20137;-77
2022/10/25 07:20:20;;;;;;;4.57;1.67;;;;;;;;;;10416028;28;20036;-77
2022/10/25 07:25:24;;;;;;;5.53;1.48;;;;;;;;;;10399136;28;20053;-78
2022/10/25 07:30:27;;;;;;;4.20;1.40;;;;;;;;;;10413960;28;20042;-78
2022/10/25 07:35:29;;;;;;;;;;;;;;;;;;10414580;28;20550;-79
2022/10/25 07:40:38;;;;;;;2.67;1.80;;;;;;;;;;10414168;28;20321;-78
2022/10/25 07:45:40;;;;;;;3.10;1.77;;;;;;;;;;10394274;28;20042;-79
2022/10/25 07:50:43;;;;;;;2.08;1.20;;;;;;;;;;10412899;28;20038;-79
2022/10/25 07:55:51;;;;;;;2.53;1.30;;;;;;;;;;10413719;28;20052;-79
2022/10/25 08:00:59;;;;;;;8.95;1.30;;;;;;;;;;10406793;28;20037;-79
2022/10/25 08:06:03;;;;;;;5.35;1.20;;;;;;;;;;10414440;28;20495;-79
2022/10/25 08:11:07;;;;;;;3.50;1.20;;;;;;;;;;10414680;28;20038;-79
2022/10/25 08:16:09;;;;;;;2.15;1.05;;;;;;;;;;10415207;28;20847;-80
2022/10/25 08:21:12;;;;;;;5.27;1.80;;;;;;;;;;10418008;28;20042;-80
2022/10/25 08:26:16;;;;;;;1.35;1.25;;;;;;;;;;10406087;28;20079;-80
2022/10/25 08:31:19;;;;;;;5.85;1.73;;;;;;;;;;10404464;28;20548;-79
2022/10/25 08:36:22;;;;;;;1.48;1.25;;;;;;;;;;10410961;28;20067;-80
2022/10/25 08:41:33;;;;;;;3.30;1.05;;;;;;;;;;10411787;28;20041;-80
2022/10/25 08:46:38;;;;;;;2.47;1.40;;;;;;;;;;10411467;28;20120;-79
2022/10/25 08:51:43;;;;;;;3.45;2.03;;;;;;;;;;10411588;28;20045;-79
2022/10/25 08:56:47;;;;;;;1.90;1.20;;;;;;;;;;10390090;28;20049;-80
2022/10/25 09:02:14;;;;;;;2.97;1.35;;;;;;;;;;10423099;28;20061;-80
2022/10/25 09:07:32;;;;;;;3.75;1.40;;;;;;;;;;10443249;28;20061;-80
2022/10/25 09:12:39;;;;;;;4.70;1.85;;;;;;;;;;10438984;28;20037;-79
2022/10/25 09:17:44;;;;;;;1.40;1.30;;;;;;;;;;10439229;28;20045;-80
2022/10/25 09:22:47;;;;;;;3.63;1.50;;;;;;;;;;10444139;28;20037;-80
2022/10/25 09:27:54;;;;;;;2.10;1.50;;;;;;;;;;10433891;28;20111;-80
2022/10/25 09:33:00;;;;;;;4.80;1.42;;;;;;;;;;10433977;28;20380;-80
2022/10/25 09:38:08;;;;;;;2.47;1.50;;;;;;;;;;10411751;28;20491;-79
2022/10/25 09:43:16;;;;;;;4.55;2.00;;;;;;;;;;10450043;28;20045;-80
2022/10/25 09:48:22;;;;;;;1.90;1.42;;;;;;;;;;10394559;28;20045;-80
2022/10/25 09:53:25;;;;;;;2.67;1.45;;;;;;;;;;10417408;28;20103;-80
2022/10/25 09:58:30;;;;;;;2.42;1.30;;;;;;;;;;10427064;28;20045;-80
2022/10/25 10:03:34;;;;;;;1.48;1.05;;;;;;;;;;10410969;28;20052;-80
2022/10/25 10:08:36;;;;;;;2.55;1.30;;;;;;;;;;10431076;28;20131;-80
2022/10/25 10:13:42;;;;;;;2.08;1.30;;;;;;;;;;10460034;28;20049;-79
2022/10/25 10:18:45;;;;;;;2.28;1.23;;;;;;;;;;10448278;28;20041;-79
2022/10/25 10:23:51;;;;;;;2.75;1.33;;;;;;;;;;10463725;28;20437;-79
2022/10/25 10:29:01;;;;;;;3.90;1.33;;;;;;;;;;10435085;28;20474;-80
2022/10/25 10:34:22;;;;;;;1.85;1.13;;;;;;;;;;10439556;28;20049;-80
2022/10/25 10:39:25;;;;;;;2.97;1.50;;;;;;;;;;10424910;28;20041;-80
2022/10/25 10:44:33;;;;;;;2.22;1.55;;;;;;;;;;10458180;28;20632;-80
2022/10/25 10:49:37;;;;;;;2.10;1.42;;;;;;;;;;10426101;28;20065;-80
2022/10/25 10:54:49;;;;;;;3.78;1.40;;;;;;;;;;10417698;28;20616;-80
2022/10/25 10:59:55;;;;;;;3.33;1.60;;;;;;;;;;10429086;28;20075;-79
2022/10/25 11:04:57;;;;;;;2.20;1.75;;;;;;;;;;10418377;28;20049;-79
2022/10/25 11:10:24;;;;;;;1.60;1.50;;;;;;;;;;10448521;28;20486;-79
2022/10/25 11:15:32;;;;;;;3.80;1.65;;;;;;;;;;10448257;28;20049;-78
2022/10/25 11:20:40;;;;;;;4.25;1.00;;;;;;;;;;10464539;28;20045;-79
2022/10/25 11:25:45;;;;;;;1.65;0.98;;;;;;;;;;10444303;28;20037;-79
2022/10/25 11:30:54;;;;;;;3.72;1.75;;;;;;;;;;10429800;28;20048;-80
2022/10/25 11:36:02;;;;;;;2.63;1.92;;;;;;;;;;10423963;28;20041;-80
2022/10/25 11:41:09;;;;;;;2.28;0.90;;;;;;;;;;10422922;28;20095;-80
2022/10/25 11:46:15;;;;;;;2.97;1.00;;;;;;;;;;10420891;28;20285;-80
2022/10/25 11:51:27;;;;;;;3.38;0.88;;;;;;;;;;10444526;28;20075;-80
2022/10/25 11:56:32;;;;;;;2.20;0.77;;;;;;;;;;10419904;28;20042;-79
2022/10/25 12:01:43;;;;;;;4.00;0.90;;;;;;;;;;10417091;28;20466;-79
2022/10/25 12:06:55;;;;;;;0.93;0.50;;;;;;;;;;10402696;28;20490;-78
2022/10/25 12:12:00;;;;;;;4.30;1.67;;;;;;;;;;10452350;28;20053;-78
2022/10/25 12:17:06;;;;;;;3.28;1.50;;;;;;;;;;10444130;28;20075;-78
2022/10/25 12:22:13;;;;;;;1.67;1.50;;;;;;;;;;10454748;28;20037;-79
2022/10/25 12:27:17;;;;;;;2.97;1.73;;;;;;;;;;10427922;28;20049;-79
2022/10/25 12:32:25;;;;;;;4.40;1.73;;;;;;;;;;10414144;28;20285;-78
2022/10/25 12:37:34;;;;;;;3.20;1.65;;;;;;;;;;10433904;28;20049;-79
2022/10/25 12:42:40;;;;;;;3.70;1.48;;;;;;;;;;10453351;28;20045;-79
2022/10/25 12:47:52;;;;;;;3.03;2.03;;;;;;;;;;10439454;28;20081;-79
2022/10/25 12:53:08;;;;;;;1.40;1.20;;;;;;;;;;10437253;28;20048;-79
2022/10/25 12:58:20;;;;;;;2.08;1.23;;;;;;;;;;10412297;28;20106;-78
2022/10/25 13:03:47;;;;;;;2.15;1.00;;;;;;;;;;10436479;28;20044;-78
2022/10/25 13:08:50;;;;;;;1.52;0.80;;;;;;;;;;10435185;28;20045;-78
2022/10/25 13:13:53;;;;;;;2.22;1.50;;;;;;;;;;10445081;28;20065;-78
2022/10/25 13:19:20;;;;;;;2.65;1.40;;;;;;;;;;10406663;28;20042;-78
2022/10/25 13:24:43;;;;;;;1.75;1.48;;;;;;;;;;10433709;28;20461;-78
2022/10/25 13:30:16;;;;;;;4.13;2.80;;;;;;;;;;10429042;28;20390;-78
2022/10/25 13:35:43;;;;;;;3.20;1.20;;;;;;;;;;10418971;28;20038;-78
2022/10/25 13:41:04;;;;;;;2.67;1.42;;;;;;;;;;10384623;28;20064;-78
2022/10/25 13:46:10;;;;;;;1.70;1.30;;;;;;;;;;10410230;28;20092;-79
2022/10/25 13:51:15;;;;;;;1.48;1.20;;;;;;;;;;10448063;28;20098;-79
2022/10/25 13:56:32;;;;;;;2.45;1.23;;;;;;;;;;10390808;28;20046;-78
2022/10/25 14:01:55;;;;;;;3.20;1.48;;;;;;;;;;10414145;28;20033;-78
2022/10/25 14:07:25;;;;;;;1.98;1.17;;;;;;;;;;10413950;28;20045;-77
2022/10/25 14:12:30;;;;;;;4.28;2.17;;;;;;;;;;10399979;28;20080;-78
2022/10/25 14:17:35;;;;;;;3.35;1.40;;;;;;;;;;10421792;28;20049;-78
2022/10/25 14:22:40;;;;;;;1.77;0.70;;;;;;;;;;10453052;28;20033;-78
2022/10/25 14:27:44;;;;;;;1.45;0.80;;;;;;;;;;10408115;28;20525;-78
2022/10/25 14:32:54;;;;;;;3.25;1.20;;;;;;;;;;10402708;28;20111;-78
2022/10/25 14:37:57;;;;;;;3.70;0.70;;;;;;;;;;10409266;28;20055;-79
2022/10/25 14:43:18;;;;;;;1.98;0.95;;;;;;;;;;10408747;28;20099;-81
2022/10/25 14:48:21;;;;;;;3.47;0.98;;;;;;;;;;10400719;28;20041;-78
2022/10/25 14:53:25;;;;;;;1.70;0.57;;;;;;;;;;10415582;28;20660;-78
2022/10/25 14:58:30;;;;;;;2.47;0.90;;;;;;;;;;10446275;28;20053;-79
2022/10/25 15:03:39;;;;;;;2.20;0.60;;;;;;;;;;10417647;28;20041;-78
2022/10/25 15:08:43;;;;;;;2.30;0.68;;;;;;;;;;10423001;28;20466;-77
2022/10/25 15:13:54;;;;;;;2.90;1.20;;;;;;;;;;10453285;28;20036;-78
2022/10/25 15:19:04;;;;;;;4.63;0.73;;;;;;;;;;10397344;28;20045;-78
2022/10/25 15:24:08;;;;;;;2.35;0.80;;;;;;;;;;10418241;28;20037;-79
2022/10/25 15:29:12;;;;;;;1.25;0.70;;;;;;;;;;10425978;28;20438;-78
2022/10/25 15:34:20;;;;;;;3.58;1.00;;;;;;;;;;10437956;28;20056;-79
2022/10/25 15:39:25;;;;;;;5.72;1.50;;;;;;;;;;10436765;28;20491;-78
2022/10/25 15:44:29;;;;;;;4.53;1.42;;;;;;;;;;10451529;28;20053;-78
2022/10/25 15:49:33;;;;;;;5.65;2.40;;;;;;;;;;10446345;28;20033;-78
2022/10/25 15:54:36;;;;;;;3.33;0.93;;;;;;;;;;10427469;28;20403;-77
2022/10/25 15:59:40;;;;;;;4.27;0.90;;;;;;;;;;10424689;28;20111;-78
2022/10/25 16:04:43;;;;;;;4.07;1.60;;;;;;;;;;10413642;28;20425;-77
2022/10/25 16:09:45;;;;;;;2.80;1.13;;;;;;;;;;10424134;28;20071;-78
2022/10/25 16:14:51;;;;;;;3.45;1.17;;;;;;;;;;10442887;28;20032;-78
2022/10/25 16:19:54;;;;;;;2.90;1.13;;;;;;;;;;10446666;28;20175;-78
2022/10/25 16:24:57;;;;;;;4.13;1.40;;;;;;;;;;10421753;28;20103;-78
2022/10/25 16:30:05;;;;;;;6.85;1.65;;;;;;;;;;10428783;28;20453;-77
2022/10/25 16:35:08;;;;;;;5.07;1.52;;;;;;;;;;10430614;28;20041;-78
2022/10/25 16:40:14;;;;;;;5.72;2.53;;;;;;;;;;10435975;28;20056;-78
2022/10/25 16:45:21;;;;;;;3.67;1.60;;;;;;;;;;10438256;28;20562;-78
2022/10/25 16:50:26;;;;;;;3.17;1.55;;;;;;;;;;10404089;28;20054;-79
2022/10/25 16:55:29;;;;;;;7.55;1.48;;;;;;;;;;10429058;28;20049;-79
2022/10/25 17:00:34;;;;;;;2.75;1.23;;;;;;;;;;10423051;28;20041;-79
2022/10/25 17:05:38;;;;;;;5.28;2.00;;;;;;;;;;10413074;28;20100;-78
2022/10/25 17:10:41;;;;;;;6.80;2.20;;;;;;;;;;10447823;28;20040;-79
2022/10/25 17:15:50;;;;;;;8.20;2.40;;;;;;;;;;10441324;28;20513;-78
2022/10/25 17:20:53;;;;;;;7.60;1.98;;;;;;;;;;10454185;28;20056;-79
2022/10/25 17:25:56;;;;;;;6.13;2.30;;;;;;;;;;10431631;28;20049;-80
2022/10/25 17:31:00;;;;;;;6.03;2.13;;;;;;;;;;10427776;28;20327;-79
2022/10/25 17:36:07;;;;;;;5.75;2.25;;;;;;;;;;10417201;28;20095;-79
2022/10/25 17:41:10;;;;;;;4.90;1.88;;;;;;;;;;10432454;28;20296;-79
2022/10/25 17:46:16;;;;;;;8.30;2.93;;;;;;;;;;10439335;28;20038;-78
2022/10/25 17:51:19;;;;;;;7.93;2.65;;;;;;;;;;10371903;28;20726;-78
2022/10/25 17:56:22;;;;;;;6.63;2.33;;;;;;;;;;10424810;28;20051;-78
2022/10/25 18:01:30;;;;;;;6.88;2.30;;;;;;;;;;10418485;28;20125;-79
2022/10/25 18:06:32;;;;;;;10.57;2.35;;;;;;;;;;10416634;28;20052;-79
2022/10/25 18:11:36;;;;;;;6.30;2.60;;;;;;;;;;10443976;28;20103;-79
2022/10/25 18:16:41;;;;;;;6.72;3.53;;;;;;;;;;10436935;28;20041;-79
2022/10/25 18:21:43;;;;;;;7.53;3.72;;;;;;;;;;10452618;28;20394;-79
2022/10/25 18:26:46;;;;;;;8.05;3.25;;;;;;;;;;10431413;28;20072;-79
2022/10/25 18:31:51;;;;;;;9.47;3.47;;;;;;;;;;10441296;28;20036;-78
2022/10/25 18:36:53;;;;;;;9.55;3.45;;;;;;;;;;10417894;28;20107;-79
2022/10/25 18:41:56;;;;;;;11.98;4.25;;;;;;;;;;10454571;28;20394;-78
2022/10/25 18:47:00;;;;;;;9.65;3.80;;;;;;;;;;10442791;28;20041;-78
2022/10/25 18:52:03;;;;;;;;;;;;;;;;;;10449292;28;20041;-79
2022/10/25 18:57:05;;;;;;;9.80;3.33;;;;;;;;;;10426346;28;19921;-78
2022/10/25 19:02:10;;;;;;;7.90;2.80;;;;;;;;;;10424729;28;20049;-78
2022/10/25 19:07:13;;;;;;;8.90;2.85;;;;;;;;;;10397489;28;20056;-77
2022/10/25 19:12:16;;;;;;;8.98;3.00;;;;;;;;;;10423004;28;20038;-80
2022/10/25 19:17:20;;;;;;;14.68;5.25;;;;;;;;;;10438884;28;20149;-79
2022/10/25 19:22:22;;;;;;;10.45;4.40;;;;;;;;;;10456112;28;20040;-78
2022/10/25 19:27:27;;;;;;;8.90;4.00;;;;;;;;;;10436884;28;20137;-78
2022/10/25 19:32:32;;;;;;;5.25;2.55;;;;;;;;;;10412668;28;20120;-79
2022/10/25 19:37:38;;;;;;;7.05;3.15;;;;;;;;;;10423226;28;20564;-79
2022/10/25 19:42:41;;;;;;;9.73;3.40;;;;;;;;;;10450320;28;20136;-78
2022/10/25 19:47:45;;;;;;;7.67;2.60;;;;;;;;;;10441816;28;20104;-77
2022/10/25 19:52:49;;;;;;;4.18;1.73;;;;;;;;;;10441133;28;20104;-77
2022/10/25 19:57:59;;;;;;;6.67;2.50;;;;;;;;;;10414759;28;20060;-77
2022/10/25 20:03:06;;;;;;;12.13;3.17;;;;;;;;;;10419456;28;20124;-81
2022/10/25 20:08:09;;;;;;;2.72;1.25;;;;;;;;;;10415872;28;20076;-79
2022/10/25 20:13:14;;;;;;;6.50;2.33;;;;;;;;;;10459154;28;20045;-80
2022/10/25 20:18:19;;;;;;;5.50;2.28;;;;;;;;;;10431395;28;20041;-82
2022/10/25 20:23:22;;;;;;;4.65;2.22;;;;;;;;;;10434583;28;20041;-81
2022/10/25 20:28:25;;;;;;;3.95;2.03;;;;;;;;;;10448409;28;20087;-81
2022/10/25 20:33:29;;;;;;;5.95;2.00;;;;;;;;;;10434987;28;20045;-82
2022/10/25 20:38:31;;;;;;;;;;;;;;;;;;10431038;28;20124;-80
2022/10/25 20:43:34;;;;;;;8.18;2.60;;;;;;;;;;10449165;28;19921;-80
2022/10/25 20:48:38;;;;;;;2.72;0.85;;;;;;;;;;10444758;28;20094;-80
2022/10/25 20:53:42;;;;;;;4.05;1.88;;;;;;;;;;10437720;28;20104;-80
2022/10/25 20:58:45;;;;;;;3.80;1.45;;;;;;;;;;10437288;28;20650;-80
2022/10/25 21:03:49;;;;;;;6.67;2.67;;;;;;;;;;10413070;28;20171;-80
2022/10/25 21:08:52;;;;;;;4.45;2.47;;;;;;;;;;10424922;28;20041;-80
2022/10/25 21:13:54;;;;;;;3.47;1.65;;;;;;;;;;10445156;28;20033;-80
2022/10/25 21:19:01;;;;;;;5.00;2.30;;;;;;;;;;10449042;28;20087;-81
2022/10/25 21:24:04;;;;;;;3.90;1.58;;;;;;;;;;10437926;28;20072;-80
2022/10/25 21:29:07;;;;;;;7.65;2.63;;;;;;;;;;10430715;28;20131;-80
2022/10/25 21:34:14;;;;;;;3.05;1.75;;;;;;;;;;10431534;28;20045;-80
2022/10/25 21:39:22;;;;;;;7.10;2.22;;;;;;;;;;10427881;28;20037;-80
2022/10/25 21:44:24;;;;;;;2.15;1.30;;;;;;;;;;10424499;28;20036;-79
2022/10/25 21:49:28;;;;;;;6.95;2.17;;;;;;;;;;10443369;28;20052;-80
2022/10/25 21:54:31;;;;;;;5.10;2.58;;;;;;;;;;10431279;28;20065;-80
2022/10/25 21:59:33;;;;;;;2.28;1.35;;;;;;;;;;10428548;28;20065;-80
2022/10/25 22:04:38;;;;;;;3.63;1.77;;;;;;;;;;10409807;28;20188;-79
2022/10/25 22:09:41;;;;;;;3.85;1.58;;;;;;;;;;10427998;28;20122;-80
2022/10/25 22:14:44;;;;;;;3.55;1.90;;;;;;;;;;10449512;28;20037;-79
2022/10/25 22:19:48;;;;;;;4.82;1.98;;;;;;;;;;10436082;28;20083;-79
2022/10/25 22:24:51;;;;;;;4.45;2.10;;;;;;;;;;10447195;28;20042;-79
2022/10/25 22:29:53;;;;;;;6.03;2.22;;;;;;;;;;10425075;28;20086;-79
2022/10/25 22:34:57;;;;;;;3.55;1.58;;;;;;;;;;10426428;28;20034;-79
2022/10/25 22:39:59;;;;;;;2.97;1.80;;;;;;;;;;10437238;28;20079;-79
2022/10/25 22:45:02;;;;;;;3.45;1.60;;;;;;;;;;10438130;28;20038;-79
2022/10/25 22:50:07;;;;;;;7.57;2.35;;;;;;;;;;10437103;28;20045;-79
2022/10/25 22:55:09;;;;;;;5.93;2.00;;;;;;;;;;10426412;28;20112;-79
2022/10/25 23:00:12;;;;;;;3.90;1.92;;;;;;;;;;10410421;28;20056;-79
2022/10/25 23:05:26;;;;;;;3.33;1.20;;;;;;;;;;10406659;28;20038;-79
2022/10/25 23:10:36;;;;;;;6.22;2.00;;;;;;;;;;10442915;28;20041;-79
2022/10/25 23:15:38;;;;;;;5.50;1.92;;;;;;;;;;10446406;28;20037;-79
2022/10/25 23:20:49;;;;;;;7.10;2.38;;;;;;;;;;10468473;28;20045;-80
2022/10/25 23:25:51;;;;;;;7.00;2.13;;;;;;;;;;10429797;28;20044;-80
2022/10/25 23:31:02;;;;;;;4.50;2.10;;;;;;;;;;10435347;28;20524;-79
2022/10/25 23:36:09;;;;;;;4.55;2.20;;;;;;;;;;10426518;28;20095;-79
2022/10/25 23:41:11;;;;;;;5.63;1.92;;;;;;;;;;10448286;28;20477;-78
2022/10/25 23:46:14;;;;;;;3.50;1.92;;;;;;;;;;10447293;28;20033;-78
2022/10/25 23:51:19;;;;;;;3.97;2.05;;;;;;;;;;10414273;28;20101;-80
2022/10/25 23:56:21;;;;;;;3.55;1.95;;;;;;;;;;10435728;28;20049;-79
